sensor_id;sensor_type;location;lat;lon;timestamp;temperature;humidity
28552;DHT22;15752;49.560;8.708;2023-02-26T00:02:01;5.60;97.60
28552;DHT22;15752;49.560;8.708;2023-02-26T00:04:30;5.70;98.20
28552;DHT22;15752;49.560;8.708;2023-02-26T00:07:00;5.50;97.90
28552;DHT22;15752;49.560;8.708;2023-02-26T00:09:30;5.50;98.20
28552;DHT22;15752;49.560;8.708;2023-02-26T00:11:59;5.70;98.00
28552;DHT22;15752;49.560;8.708;2023-02-26T00:14:28;5.50;98.00
28552;DHT22;15752;49.560;8.708;2023-02-26T00:17:13;5.50;97.80
28552;DHT22;15752;49.560;8.708;2023-02-26T00:19:54;5.50;98.00
28552;DHT22;15752;49.560;8.708;2023-02-26T00:22:25;5.40;97.90
28552;DHT22;15752;49.560;8.708;2023-02-26T00:24:54;5.40;97.90
28552;DHT22;15752;49.560;8.708;2023-02-26T00:27:23;5.40;97.90
28552;DHT22;15752;49.560;8.708;2023-02-26T00:29:52;5.40;97.70
28552;DHT22;15752;49.560;8.708;2023-02-26T00:32:21;5.40;98.00
28552;DHT22;15752;49.560;8.708;2023-02-26T00:34:51;5.40;98.00
28552;DHT22;15752;49.560;8.708;2023-02-26T00:37:33;5.40;98.00
28552;DHT22;15752;49.560;8.708;2023-02-26T00:40:14;5.40;98.10
28552;DHT22;15752;49.560;8.708;2023-02-26T00:42:49;5.40;98.00
28552;DHT22;15752;49.560;8.708;2023-02-26T00:45:18;5.30;97.90
28552;DHT22;15752;49.560;8.708;2023-02-26T00:47:51;5.30;98.00
28552;DHT22;15752;49.560;8.708;2023-02-26T00:50:25;5.30;98.00
28552;DHT22;15752;49.560;8.708;2023-02-26T00:53:02;5.30;97.90
28552;DHT22;15752;49.560;8.708;2023-02-26T00:55:34;5.30;98.00
28552;DHT22;15752;49.560;8.708;2023-02-26T00:58:03;5.50;97.80
28552;DHT22;15752;49.560;8.708;2023-02-26T01:00:31;5.20;97.80
28552;DHT22;15752;49.560;8.708;2023-02-26T01:03:00;5.20;97.90
28552;DHT22;15752;49.560;8.708;2023-02-26T01:05:30;5.20;98.00
28552;DHT22;15752;49.560;8.708;2023-02-26T01:08:04;5.20;97.90
28552;DHT22;15752;49.560;8.708;2023-02-26T01:10:39;5.20;97.90
28552;DHT22;15752;49.560;8.708;2023-02-26T01:13:08;5.20;97.90
28552;DHT22;15752;49.560;8.708;2023-02-26T01:15:39;5.20;97.90
28552;DHT22;15752;49.560;8.708;2023-02-26T01:18:15;5.20;98.00
28552;DHT22;15752;49.560;8.708;2023-02-26T01:20:50;5.20;98.00
28552;DHT22;15752;49.560;8.708;2023-02-26T01:23:25;5.20;98.00
28552;DHT22;15752;49.560;8.708;2023-02-26T01:25:57;5.10;98.00
28552;DHT22;15752;49.560;8.708;2023-02-26T01:28:27;5.10;98.00
28552;DHT22;15752;49.560;8.708;2023-02-26T01:30:58;5.10;98.00
28552;DHT22;15752;49.560;8.708;2023-02-26T01:34:02;5.10;98.30
28552;DHT22;15752;49.560;8.708;2023-02-26T01:36:39;5.10;98.10
28552;DHT22;15752;49.560;8.708;2023-02-26T01:39:18;5.10;98.10
28552;DHT22;15752;49.560;8.708;2023-02-26T01:41:53;5.10;98.10
28552;DHT22;15752;49.560;8.708;2023-02-26T01:44:26;5.10;98.10
28552;DHT22;15752;49.560;8.708;2023-02-26T01:47:05;5.00;98.20
28552;DHT22;15752;49.560;8.708;2023-02-26T01:49:39;5.00;98.00
28552;DHT22;15752;49.560;8.708;2023-02-26T01:55:27;5.00;98.00
28552;DHT22;15752;49.560;8.708;2023-02-26T01:57:58;5.00;98.00
28552;DHT22;15752;49.560;8.708;2023-02-26T02:00:29;5.10;98.10
28552;DHT22;15752;49.560;8.708;2023-02-26T02:02:58;4.90;98.40
28552;DHT22;15752;49.560;8.708;2023-02-26T02:05:31;4.90;97.90
28552;DHT22;15752;49.560;8.708;2023-02-26T02:08:01;5.20;98.10
28552;DHT22;15752;49.560;8.708;2023-02-26T02:10:31;4.90;98.00
28552;DHT22;15752;49.560;8.708;2023-02-26T02:13:06;5.10;97.90
28552;DHT22;15752;49.560;8.708;2023-02-26T02:15:45;5.00;97.90
28552;DHT22;15752;49.560;8.708;2023-02-26T02:18:23;5.10;98.00
28552;DHT22;15752;49.560;8.708;2023-02-26T02:21:19;4.90;98.00
28552;DHT22;15752;49.560;8.708;2023-02-26T02:23:59;4.90;98.00
28552;DHT22;15752;49.560;8.708;2023-02-26T02:26:49;4.80;98.00
28552;DHT22;15752;49.560;8.708;2023-02-26T02:32:51;4.80;98.10
28552;DHT22;15752;49.560;8.708;2023-02-26T02:35:25;4.80;98.10
28552;DHT22;15752;49.560;8.708;2023-02-26T02:38:01;4.80;98.00
28552;DHT22;15752;49.560;8.708;2023-02-26T02:40:34;5.00;98.00
28552;DHT22;15752;49.560;8.708;2023-02-26T02:43:07;4.80;98.00
28552;DHT22;15752;49.560;8.708;2023-02-26T02:45:41;4.70;98.00
28552;DHT22;15752;49.560;8.708;2023-02-26T02:48:16;4.70;97.90
28552;DHT22;15752;49.560;8.708;2023-02-26T02:50:49;4.70;98.00
28552;DHT22;15752;49.560;8.708;2023-02-26T02:53:23;4.70;98.40
28552;DHT22;15752;49.560;8.708;2023-02-26T02:55:56;4.90;98.10
28552;DHT22;15752;49.560;8.708;2023-02-26T02:58:29;4.70;98.10
28552;DHT22;15752;49.560;8.708;2023-02-26T03:01:03;4.70;98.00
28552;DHT22;15752;49.560;8.708;2023-02-26T03:03:40;4.80;98.00
28552;DHT22;15752;49.560;8.708;2023-02-26T03:06:12;4.60;98.00
28552;DHT22;15752;49.560;8.708;2023-02-26T03:08:42;4.60;97.90
28552;DHT22;15752;49.560;8.708;2023-02-26T03:11:11;4.60;98.00
28552;DHT22;15752;49.560;8.708;2023-02-26T03:13:40;4.70;97.80
28552;DHT22;15752;49.560;8.708;2023-02-26T03:19:35;4.60;98.40
28552;DHT22;15752;49.560;8.708;2023-02-26T03:22:11;4.60;98.10
28552;DHT22;15752;49.560;8.708;2023-02-26T03:24:57;4.60;97.90
28552;DHT22;15752;49.560;8.708;2023-02-26T03:27:31;4.50;97.90
28552;DHT22;15752;49.560;8.708;2023-02-26T03:30:05;4.50;98.00
28552;DHT22;15752;49.560;8.708;2023-02-26T03:32:47;4.50;97.90
28552;DHT22;15752;49.560;8.708;2023-02-26T03:35:26;4.50;98.00
28552;DHT22;15752;49.560;8.708;2023-02-26T03:38:00;4.50;97.90
28552;DHT22;15752;49.560;8.708;2023-02-26T03:40:36;4.50;97.90
28552;DHT22;15752;49.560;8.708;2023-02-26T03:43:16;4.50;97.80
28552;DHT22;15752;49.560;8.708;2023-02-26T03:45:48;4.50;97.90
28552;DHT22;15752;49.560;8.708;2023-02-26T03:48:22;4.40;97.80
28552;DHT22;15752;49.560;8.708;2023-02-26T03:50:58;4.40;97.80
28552;DHT22;15752;49.560;8.708;2023-02-26T03:53:34;4.40;97.80
28552;DHT22;15752;49.560;8.708;2023-02-26T03:56:15;4.40;97.90
28552;DHT22;15752;49.560;8.708;2023-02-26T03:59:05;4.40;98.00
28552;DHT22;15752;49.560;8.708;2023-02-26T04:01:46;4.40;97.90
28552;DHT22;15752;49.560;8.708;2023-02-26T04:04:20;4.60;98.00
28552;DHT22;15752;49.560;8.708;2023-02-26T04:06:53;4.40;98.00
28552;DHT22;15752;49.560;8.708;2023-02-26T04:09:22;4.40;98.00
28552;DHT22;15752;49.560;8.708;2023-02-26T04:11:52;4.30;97.90
28552;DHT22;15752;49.560;8.708;2023-02-26T04:14:21;4.30;97.90
28552;DHT22;15752;49.560;8.708;2023-02-26T04:16:51;4.30;97.90
28552;DHT22;15752;49.560;8.708;2023-02-26T04:19:19;4.30;97.90
28552;DHT22;15752;49.560;8.708;2023-02-26T04:21:48;4.30;97.90
28552;DHT22;15752;49.560;8.708;2023-02-26T04:24:17;4.30;97.90
28552;DHT22;15752;49.560;8.708;2023-02-26T04:26:47;4.60;97.80
28552;DHT22;15752;49.560;8.708;2023-02-26T04:29:16;4.30;97.80
28552;DHT22;15752;49.560;8.708;2023-02-26T04:31:44;4.30;97.80
28552;DHT22;15752;49.560;8.708;2023-02-26T04:34:13;4.50;97.70
28552;DHT22;15752;49.560;8.708;2023-02-26T04:36:41;4.30;97.80
28552;DHT22;15752;49.560;8.708;2023-02-26T04:39:10;4.20;97.80
28552;DHT22;15752;49.560;8.708;2023-02-26T04:41:41;4.20;97.90
28552;DHT22;15752;49.560;8.708;2023-02-26T04:44:09;4.20;97.90
28552;DHT22;15752;49.560;8.708;2023-02-26T04:46:40;4.20;98.00
28552;DHT22;15752;49.560;8.708;2023-02-26T04:49:09;4.20;97.90
28552;DHT22;15752;49.560;8.708;2023-02-26T04:51:41;4.20;98.10
28552;DHT22;15752;49.560;8.708;2023-02-26T04:54:12;4.20;97.70
28552;DHT22;15752;49.560;8.708;2023-02-26T04:56:41;4.20;97.90
28552;DHT22;15752;49.560;8.708;2023-02-26T04:59:10;4.20;97.70
28552;DHT22;15752;49.560;8.708;2023-02-26T05:01:39;4.20;97.90
28552;DHT22;15752;49.560;8.708;2023-02-26T05:04:07;4.20;97.80
28552;DHT22;15752;49.560;8.708;2023-02-26T05:06:37;4.20;97.80
28552;DHT22;15752;49.560;8.708;2023-02-26T05:09:05;4.20;97.80
28552;DHT22;15752;49.560;8.708;2023-02-26T05:11:34;4.20;97.70
28552;DHT22;15752;49.560;8.708;2023-02-26T05:14:07;4.20;97.40
28552;DHT22;15752;49.560;8.708;2023-02-26T05:16:36;4.20;97.40
28552;DHT22;15752;49.560;8.708;2023-02-26T05:19:05;4.20;97.40
28552;DHT22;15752;49.560;8.708;2023-02-26T05:21:34;4.20;97.70
28552;DHT22;15752;49.560;8.708;2023-02-26T05:24:03;4.10;97.50
28552;DHT22;15752;49.560;8.708;2023-02-26T05:26:32;4.10;97.60
28552;DHT22;15752;49.560;8.708;2023-02-26T05:29:01;4.10;97.40
28552;DHT22;15752;49.560;8.708;2023-02-26T05:31:31;4.00;97.60
28552;DHT22;15752;49.560;8.708;2023-02-26T05:34:00;4.00;97.70
28552;DHT22;15752;49.560;8.708;2023-02-26T05:36:28;4.00;97.70
28552;DHT22;15752;49.560;8.708;2023-02-26T05:38:57;4.00;97.40
28552;DHT22;15752;49.560;8.708;2023-02-26T05:41:25;4.00;97.60
28552;DHT22;15752;49.560;8.708;2023-02-26T05:43:53;4.00;97.50
28552;DHT22;15752;49.560;8.708;2023-02-26T05:46:22;4.00;97.70
28552;DHT22;15752;49.560;8.708;2023-02-26T05:48:52;4.00;97.80
28552;DHT22;15752;49.560;8.708;2023-02-26T05:51:21;4.00;97.60
28552;DHT22;15752;49.560;8.708;2023-02-26T05:53:49;4.00;97.80
28552;DHT22;15752;49.560;8.708;2023-02-26T05:56:17;4.00;97.80
28552;DHT22;15752;49.560;8.708;2023-02-26T05:58:46;4.00;97.80
28552;DHT22;15752;49.560;8.708;2023-02-26T06:01:14;4.00;97.50
28552;DHT22;15752;49.560;8.708;2023-02-26T06:03:43;4.00;97.70
28552;DHT22;15752;49.560;8.708;2023-02-26T06:06:13;3.90;97.60
28552;DHT22;15752;49.560;8.708;2023-02-26T06:08:44;4.20;97.90
28552;DHT22;15752;49.560;8.708;2023-02-26T06:11:12;3.90;97.90
28552;DHT22;15752;49.560;8.708;2023-02-26T06:13:41;3.90;97.90
28552;DHT22;15752;49.560;8.708;2023-02-26T06:16:09;3.90;97.90
28552;DHT22;15752;49.560;8.708;2023-02-26T06:18:37;3.90;97.80
28552;DHT22;15752;49.560;8.708;2023-02-26T06:21:06;4.00;97.80
28552;DHT22;15752;49.560;8.708;2023-02-26T06:23:36;3.90;97.70
28552;DHT22;15752;49.560;8.708;2023-02-26T06:26:05;4.00;97.90
28552;DHT22;15752;49.560;8.708;2023-02-26T06:28:33;4.00;97.80
28552;DHT22;15752;49.560;8.708;2023-02-26T06:31:02;4.00;98.00
28552;DHT22;15752;49.560;8.708;2023-02-26T06:33:30;4.00;98.00
28552;DHT22;15752;49.560;8.708;2023-02-26T06:35:59;4.00;97.60
28552;DHT22;15752;49.560;8.708;2023-02-26T06:38:29;4.00;97.70
28552;DHT22;15752;49.560;8.708;2023-02-26T06:40:58;4.00;97.70
28552;DHT22;15752;49.560;8.708;2023-02-26T06:43:27;4.10;98.00
28552;DHT22;15752;49.560;8.708;2023-02-26T06:45:56;4.30;97.80
28552;DHT22;15752;49.560;8.708;2023-02-26T06:48:25;4.40;98.10
28552;DHT22;15752;49.560;8.708;2023-02-26T06:50:54;4.10;98.10
28552;DHT22;15752;49.560;8.708;2023-02-26T06:53:22;4.10;97.90
28552;DHT22;15752;49.560;8.708;2023-02-26T06:55:52;4.10;97.90
28552;DHT22;15752;49.560;8.708;2023-02-26T06:58:22;4.10;97.70
28552;DHT22;15752;49.560;8.708;2023-02-26T07:00:51;4.30;97.70
28552;DHT22;15752;49.560;8.708;2023-02-26T07:03:19;4.00;97.50
28552;DHT22;15752;49.560;8.708;2023-02-26T07:05:48;4.00;97.60
28552;DHT22;15752;49.560;8.708;2023-02-26T07:08:16;4.00;97.90
28552;DHT22;15752;49.560;8.708;2023-02-26T07:10:45;4.00;97.30
28552;DHT22;15752;49.560;8.708;2023-02-26T07:13:15;4.00;97.50
28552;DHT22;15752;49.560;8.708;2023-02-26T07:15:45;4.00;97.90
28552;DHT22;15752;49.560;8.708;2023-02-26T07:18:14;4.00;97.80
28552;DHT22;15752;49.560;8.708;2023-02-26T07:20:42;4.00;97.80
28552;DHT22;15752;49.560;8.708;2023-02-26T07:23:11;4.00;98.00
28552;DHT22;15752;49.560;8.708;2023-02-26T07:25:40;4.00;97.80
28552;DHT22;15752;49.560;8.708;2023-02-26T07:28:08;4.30;98.00
28552;DHT22;15752;49.560;8.708;2023-02-26T07:30:36;4.00;97.80
28552;DHT22;15752;49.560;8.708;2023-02-26T07:33:09;4.10;97.50
28552;DHT22;15752;49.560;8.708;2023-02-26T07:35:40;4.10;97.70
28552;DHT22;15752;49.560;8.708;2023-02-26T07:38:08;4.10;97.90
28552;DHT22;15752;49.560;8.708;2023-02-26T07:40:36;4.10;97.60
28552;DHT22;15752;49.560;8.708;2023-02-26T07:43:05;4.10;97.50
28552;DHT22;15752;49.560;8.708;2023-02-26T07:45:33;4.10;97.70
28552;DHT22;15752;49.560;8.708;2023-02-26T07:48:02;4.10;97.60
28552;DHT22;15752;49.560;8.708;2023-02-26T07:50:32;4.10;97.70
28552;DHT22;15752;49.560;8.708;2023-02-26T07:53:00;4.10;97.80
28552;DHT22;15752;49.560;8.708;2023-02-26T07:55:29;4.10;97.70
28552;DHT22;15752;49.560;8.708;2023-02-26T07:57:57;4.10;97.70
28552;DHT22;15752;49.560;8.708;2023-02-26T08:00:25;4.10;97.60
28552;DHT22;15752;49.560;8.708;2023-02-26T08:02:54;4.10;97.50
28552;DHT22;15752;49.560;8.708;2023-02-26T08:05:22;4.10;97.70
28552;DHT22;15752;49.560;8.708;2023-02-26T08:07:52;4.10;97.40
28552;DHT22;15752;49.560;8.708;2023-02-26T08:10:20;4.10;97.40
28552;DHT22;15752;49.560;8.708;2023-02-26T08:12:48;4.10;97.50
28552;DHT22;15752;49.560;8.708;2023-02-26T08:15:17;4.10;97.40
28552;DHT22;15752;49.560;8.708;2023-02-26T08:17:45;4.10;97.80
28552;DHT22;15752;49.560;8.708;2023-02-26T08:20:14;4.10;97.80
28552;DHT22;15752;49.560;8.708;2023-02-26T08:22:42;4.10;97.60
28552;DHT22;15752;49.560;8.708;2023-02-26T08:25:12;4.30;97.50
28552;DHT22;15752;49.560;8.708;2023-02-26T08:27:41;4.10;97.40
28552;DHT22;15752;49.560;8.708;2023-02-26T08:30:10;4.30;97.80
28552;DHT22;15752;49.560;8.708;2023-02-26T08:32:39;4.00;98.10
28552;DHT22;15752;49.560;8.708;2023-02-26T08:35:08;4.20;97.90
28552;DHT22;15752;49.560;8.708;2023-02-26T08:37:37;4.00;97.50
28552;DHT22;15752;49.560;8.708;2023-02-26T08:40:09;4.20;97.60
28552;DHT22;15752;49.560;8.708;2023-02-26T08:42:42;4.00;97.90
28552;DHT22;15752;49.560;8.708;2023-02-26T08:45:10;4.00;97.60
28552;DHT22;15752;49.560;8.708;2023-02-26T08:47:41;4.00;97.30
28552;DHT22;15752;49.560;8.708;2023-02-26T08:50:23;4.10;97.60
28552;DHT22;15752;49.560;8.708;2023-02-26T08:52:51;4.00;97.70
28552;DHT22;15752;49.560;8.708;2023-02-26T08:55:20;4.00;97.60
28552;DHT22;15752;49.560;8.708;2023-02-26T08:57:51;4.00;97.80
28552;DHT22;15752;49.560;8.708;2023-02-26T09:00:20;4.00;97.50
28552;DHT22;15752;49.560;8.708;2023-02-26T09:02:49;4.00;97.80
28552;DHT22;15752;49.560;8.708;2023-02-26T09:05:17;4.00;97.50
28552;DHT22;15752;49.560;8.708;2023-02-26T09:07:46;4.00;97.70
28552;DHT22;15752;49.560;8.708;2023-02-26T09:10:15;4.00;97.70
28552;DHT22;15752;49.560;8.708;2023-02-26T09:12:44;4.00;97.80
28552;DHT22;15752;49.560;8.708;2023-02-26T09:15:14;4.10;97.80
28552;DHT22;15752;49.560;8.708;2023-02-26T09:17:44;4.10;97.70
28552;DHT22;15752;49.560;8.708;2023-02-26T09:20:14;4.10;97.80
28552;DHT22;15752;49.560;8.708;2023-02-26T09:22:42;4.10;97.90
28552;DHT22;15752;49.560;8.708;2023-02-26T09:25:11;4.10;97.80
28552;DHT22;15752;49.560;8.708;2023-02-26T09:27:39;4.50;97.90
28552;DHT22;15752;49.560;8.708;2023-02-26T09:30:09;4.20;97.70
28552;DHT22;15752;49.560;8.708;2023-02-26T09:32:39;4.20;98.00
28552;DHT22;15752;49.560;8.708;2023-02-26T09:35:08;4.20;97.70
28552;DHT22;15752;49.560;8.708;2023-02-26T09:37:37;4.20;97.70
28552;DHT22;15752;49.560;8.708;2023-02-26T09:40:08;4.30;97.90
28552;DHT22;15752;49.560;8.708;2023-02-26T09:42:49;4.30;98.00
28552;DHT22;15752;49.560;8.708;2023-02-26T09:45:32;4.30;98.00
28552;DHT22;15752;49.560;8.708;2023-02-26T09:48:05;4.40;98.00
28552;DHT22;15752;49.560;8.708;2023-02-26T09:50:40;4.40;97.90
28552;DHT22;15752;49.560;8.708;2023-02-26T09:53:14;4.40;97.90
28552;DHT22;15752;49.560;8.708;2023-02-26T09:55:46;4.40;97.80
28552;DHT22;15752;49.560;8.708;2023-02-26T09:58:21;4.50;97.80
28552;DHT22;15752;49.560;8.708;2023-02-26T10:00:58;4.50;97.70
28552;DHT22;15752;49.560;8.708;2023-02-26T10:03:38;4.50;97.80
28552;DHT22;15752;49.560;8.708;2023-02-26T10:06:23;4.80;97.70
28552;DHT22;15752;49.560;8.708;2023-02-26T10:09:25;4.90;97.90
28552;DHT22;15752;49.560;8.708;2023-02-26T10:12:01;4.70;97.90
28552;DHT22;15752;49.560;8.708;2023-02-26T10:14:36;4.70;97.80
28552;DHT22;15752;49.560;8.708;2023-02-26T10:17:14;4.70;97.70
28552;DHT22;15752;49.560;8.708;2023-02-26T10:19:49;4.80;97.60
28552;DHT22;15752;49.560;8.708;2023-02-26T10:22:25;4.80;97.50
28552;DHT22;15752;49.560;8.708;2023-02-26T10:25:00;4.90;97.40
28552;DHT22;15752;49.560;8.708;2023-02-26T10:27:39;4.90;97.30
28552;DHT22;15752;49.560;8.708;2023-02-26T10:30:18;4.90;97.30
28552;DHT22;15752;49.560;8.708;2023-02-26T10:33:01;5.20;97.40
28552;DHT22;15752;49.560;8.708;2023-02-26T10:35:41;5.00;97.30
28552;DHT22;15752;49.560;8.708;2023-02-26T10:38:18;5.30;97.40
28552;DHT22;15752;49.560;8.708;2023-02-26T10:40:56;5.20;96.70
28552;DHT22;15752;49.560;8.708;2023-02-26T10:43:31;5.10;97.10
28552;DHT22;15752;49.560;8.708;2023-02-26T10:46:15;5.10;97.10
28552;DHT22;15752;49.560;8.708;2023-02-26T10:48:59;5.10;97.10
28552;DHT22;15752;49.560;8.708;2023-02-26T10:51:38;4.90;97.00
28552;DHT22;15752;49.560;8.708;2023-02-26T10:54:14;5.20;97.10
28552;DHT22;15752;49.560;8.708;2023-02-26T10:56:45;5.20;97.00
28552;DHT22;15752;49.560;8.708;2023-02-26T10:59:14;5.30;97.00
28552;DHT22;15752;49.560;8.708;2023-02-26T11:01:42;5.50;96.90
28552;DHT22;15752;49.560;8.708;2023-02-26T11:04:13;5.30;96.90
28552;DHT22;15752;49.560;8.708;2023-02-26T11:06:54;5.50;97.00
28552;DHT22;15752;49.560;8.708;2023-02-26T11:09:25;5.70;96.80
28552;DHT22;15752;49.560;8.708;2023-02-26T11:12:03;5.50;96.70
28552;DHT22;15752;49.560;8.708;2023-02-26T11:14:33;5.50;96.40
28552;DHT22;15752;49.560;8.708;2023-02-26T11:17:06;5.50;95.90
28552;DHT22;15752;49.560;8.708;2023-02-26T11:19:40;5.80;96.70
28552;DHT22;15752;49.560;8.708;2023-02-26T11:22:15;5.50;96.40
28552;DHT22;15752;49.560;8.708;2023-02-26T11:24:46;5.50;96.30
28552;DHT22;15752;49.560;8.708;2023-02-26T11:27:18;5.60;96.00
28552;DHT22;15752;49.560;8.708;2023-02-26T11:29:53;5.60;96.00
28552;DHT22;15752;49.560;8.708;2023-02-26T11:32:30;5.60;95.90
28552;DHT22;15752;49.560;8.708;2023-02-26T11:35:01;5.60;95.60
28552;DHT22;15752;49.560;8.708;2023-02-26T11:37:34;5.60;95.60
28552;DHT22;15752;49.560;8.708;2023-02-26T11:40:06;5.60;95.90
28552;DHT22;15752;49.560;8.708;2023-02-26T11:42:48;5.70;96.00
28552;DHT22;15752;49.560;8.708;2023-02-26T11:45:19;5.70;96.10
28552;DHT22;15752;49.560;8.708;2023-02-26T11:47:58;6.00;96.20
28552;DHT22;15752;49.560;8.708;2023-02-26T11:50:29;5.80;96.20
28552;DHT22;15752;49.560;8.708;2023-02-26T11:53:04;6.10;96.40
28552;DHT22;15752;49.560;8.708;2023-02-26T11:55:37;6.10;96.30
28552;DHT22;15752;49.560;8.708;2023-02-26T11:58:16;5.90;96.10
28552;DHT22;15752;49.560;8.708;2023-02-26T12:00:48;6.00;96.10
28552;DHT22;15752;49.560;8.708;2023-02-26T12:03:20;6.30;96.20
28552;DHT22;15752;49.560;8.708;2023-02-26T12:05:51;6.00;96.00
28552;DHT22;15752;49.560;8.708;2023-02-26T12:08:25;6.10;95.80
28552;DHT22;15752;49.560;8.708;2023-02-26T12:14:05;6.10;95.80
28552;DHT22;15752;49.560;8.708;2023-02-26T12:16:46;6.10;95.70
28552;DHT22;15752;49.560;8.708;2023-02-26T12:19:36;6.00;95.90
28552;DHT22;15752;49.560;8.708;2023-02-26T12:22:22;6.00;95.80
28552;DHT22;15752;49.560;8.708;2023-02-26T12:25:20;6.10;96.20
28552;DHT22;15752;49.560;8.708;2023-02-26T12:31:47;6.10;95.60
28552;DHT22;15752;49.560;8.708;2023-02-26T12:34:46;6.10;95.70
28552;DHT22;15752;49.560;8.708;2023-02-26T12:37:33;6.10;95.80
28552;DHT22;15752;49.560;8.708;2023-02-26T12:40:25;6.10;95.70
28552;DHT22;15752;49.560;8.708;2023-02-26T12:43:14;6.30;95.40
28552;DHT22;15752;49.560;8.708;2023-02-26T12:45:52;6.50;95.50
28552;DHT22;15752;49.560;8.708;2023-02-26T12:48:52;6.20;95.30
28552;DHT22;15752;49.560;8.708;2023-02-26T12:51:44;6.20;95.00
28552;DHT22;15752;49.560;8.708;2023-02-26T12:54:34;6.10;95.30
28552;DHT22;15752;49.560;8.708;2023-02-26T12:57:31;6.20;95.20
28552;DHT22;15752;49.560;8.708;2023-02-26T13:00:24;6.50;95.20
28552;DHT22;15752;49.560;8.708;2023-02-26T13:03:38;6.20;95.00
28552;DHT22;15752;49.560;8.708;2023-02-26T13:06:43;6.20;95.00
28552;DHT22;15752;49.560;8.708;2023-02-26T13:09:32;6.30;95.10
28552;DHT22;15752;49.560;8.708;2023-02-26T13:12:19;6.30;94.80
28552;DHT22;15752;49.560;8.708;2023-02-26T13:15:14;6.30;94.90
28552;DHT22;15752;49.560;8.708;2023-02-26T13:18:07;6.40;94.70
28552;DHT22;15752;49.560;8.708;2023-02-26T13:20:40;6.40;94.70
28552;DHT22;15752;49.560;8.708;2023-02-26T13:23:17;6.40;94.60
28552;DHT22;15752;49.560;8.708;2023-02-26T13:25:50;6.40;94.70
28552;DHT22;15752;49.560;8.708;2023-02-26T13:28:36;6.50;94.90
28552;DHT22;15752;49.560;8.708;2023-02-26T13:31:10;6.50;94.70
28552;DHT22;15752;49.560;8.708;2023-02-26T13:33:40;6.50;94.70
28552;DHT22;15752;49.560;8.708;2023-02-26T13:36:09;6.50;94.70
28552;DHT22;15752;49.560;8.708;2023-02-26T13:38:52;6.50;94.60
28552;DHT22;15752;49.560;8.708;2023-02-26T13:41:37;6.50;94.50
28552;DHT22;15752;49.560;8.708;2023-02-26T13:44:24;6.50;94.60
28552;DHT22;15752;49.560;8.708;2023-02-26T13:50:18;6.60;94.40
28552;DHT22;15752;49.560;8.708;2023-02-26T13:52:55;6.60;94.20
28552;DHT22;15752;49.560;8.708;2023-02-26T13:55:40;6.60;94.80
28552;DHT22;15752;49.560;8.708;2023-02-26T13:58:27;6.60;94.30
28552;DHT22;15752;49.560;8.708;2023-02-26T14:01:05;6.60;94.20
28552;DHT22;15752;49.560;8.708;2023-02-26T14:03:41;6.70;94.20
28552;DHT22;15752;49.560;8.708;2023-02-26T14:06:33;7.00;94.20
28552;DHT22;15752;49.560;8.708;2023-02-26T14:09:44;6.70;94.10
28552;DHT22;15752;49.560;8.708;2023-02-26T14:12:36;6.70;94.00
28552;DHT22;15752;49.560;8.708;2023-02-26T14:15:26;6.70;94.20
28552;DHT22;15752;49.560;8.708;2023-02-26T14:18:04;6.70;94.00
28552;DHT22;15752;49.560;8.708;2023-02-26T14:20:34;6.70;94.00
28552;DHT22;15752;49.560;8.708;2023-02-26T14:23:30;6.70;93.80
28552;DHT22;15752;49.560;8.708;2023-02-26T14:26:12;6.70;93.70
28552;DHT22;15752;49.560;8.708;2023-02-26T14:29:06;6.70;93.90
28552;DHT22;15752;49.560;8.708;2023-02-26T14:32:03;6.70;93.70
28552;DHT22;15752;49.560;8.708;2023-02-26T14:34:44;6.70;93.80
28552;DHT22;15752;49.560;8.708;2023-02-26T14:37:18;6.70;93.80
28552;DHT22;15752;49.560;8.708;2023-02-26T14:39:53;6.70;93.70
28552;DHT22;15752;49.560;8.708;2023-02-26T14:42:31;6.70;93.60
28552;DHT22;15752;49.560;8.708;2023-02-26T14:45:08;6.70;93.80
28552;DHT22;15752;49.560;8.708;2023-02-26T14:47:45;6.70;93.70
28552;DHT22;15752;49.560;8.708;2023-02-26T14:50:17;6.70;93.60
28552;DHT22;15752;49.560;8.708;2023-02-26T14:56:08;6.70;93.30
28552;DHT22;15752;49.560;8.708;2023-02-26T14:59:06;6.80;93.80
28552;DHT22;15752;49.560;8.708;2023-02-26T15:01:53;6.80;93.80
28552;DHT22;15752;49.560;8.708;2023-02-26T15:07:43;6.70;93.40
28552;DHT22;15752;49.560;8.708;2023-02-26T15:10:36;6.70;93.40
28552;DHT22;15752;49.560;8.708;2023-02-26T15:13:29;6.80;93.70
28552;DHT22;15752;49.560;8.708;2023-02-26T15:16:13;6.70;93.50
28552;DHT22;15752;49.560;8.708;2023-02-26T15:19:13;6.70;93.60
28552;DHT22;15752;49.560;8.708;2023-02-26T15:21:59;6.70;93.70
28552;DHT22;15752;49.560;8.708;2023-02-26T15:24:49;6.70;93.60
28552;DHT22;15752;49.560;8.708;2023-02-26T15:27:20;6.70;93.50
28552;DHT22;15752;49.560;8.708;2023-02-26T15:29:49;6.70;93.10
28552;DHT22;15752;49.560;8.708;2023-02-26T15:32:22;6.70;93.40
28552;DHT22;15752;49.560;8.708;2023-02-26T15:34:58;6.90;93.40
28552;DHT22;15752;49.560;8.708;2023-02-26T15:37:29;6.70;93.20
28552;DHT22;15752;49.560;8.708;2023-02-26T15:40:04;6.70;93.50
28552;DHT22;15752;49.560;8.708;2023-02-26T15:42:35;6.70;93.20
28552;DHT22;15752;49.560;8.708;2023-02-26T15:45:09;6.70;93.30
28552;DHT22;15752;49.560;8.708;2023-02-26T15:47:40;6.70;93.30
28552;DHT22;15752;49.560;8.708;2023-02-26T15:50:13;6.70;93.10
28552;DHT22;15752;49.560;8.708;2023-02-26T15:52:44;6.70;93.30
28552;DHT22;15752;49.560;8.708;2023-02-26T15:55:17;6.90;93.30
28552;DHT22;15752;49.560;8.708;2023-02-26T15:57:46;6.60;92.90
28552;DHT22;15752;49.560;8.708;2023-02-26T16:00:18;6.70;93.20
28552;DHT22;15752;49.560;8.708;2023-02-26T16:02:52;6.60;92.90
28552;DHT22;15752;49.560;8.708;2023-02-26T16:05:25;6.60;93.10
28552;DHT22;15752;49.560;8.708;2023-02-26T16:07:54;6.60;93.10
28552;DHT22;15752;49.560;8.708;2023-02-26T16:10:32;6.60;93.00
28552;DHT22;15752;49.560;8.708;2023-02-26T16:13:05;6.50;92.70
28552;DHT22;15752;49.560;8.708;2023-02-26T16:15:37;6.50;92.80
28552;DHT22;15752;49.560;8.708;2023-02-26T16:18:11;6.50;92.80
28552;DHT22;15752;49.560;8.708;2023-02-26T16:20:43;6.50;92.30
28552;DHT22;15752;49.560;8.708;2023-02-26T16:23:15;6.80;92.80
28552;DHT22;15752;49.560;8.708;2023-02-26T16:25:50;6.80;92.80
28552;DHT22;15752;49.560;8.708;2023-02-26T16:28:21;6.80;92.70
28552;DHT22;15752;49.560;8.708;2023-02-26T16:30:54;6.50;92.70
28552;DHT22;15752;49.560;8.708;2023-02-26T16:33:25;6.50;92.40
28552;DHT22;15752;49.560;8.708;2023-02-26T16:35:56;6.50;92.80
28552;DHT22;15752;49.560;8.708;2023-02-26T16:38:41;6.70;92.90
28552;DHT22;15752;49.560;8.708;2023-02-26T16:41:13;6.50;92.70
28552;DHT22;15752;49.560;8.708;2023-02-26T16:43:51;6.50;92.70
28552;DHT22;15752;49.560;8.708;2023-02-26T16:46:31;6.60;93.20
28552;DHT22;15752;49.560;8.708;2023-02-26T16:49:03;6.80;93.40
28552;DHT22;15752;49.560;8.708;2023-02-26T16:51:35;6.50;93.20
28552;DHT22;15752;49.560;8.708;2023-02-26T16:54:08;6.70;92.70
28552;DHT22;15752;49.560;8.708;2023-02-26T16:56:46;6.50;92.50
28552;DHT22;15752;49.560;8.708;2023-02-26T16:59:19;6.50;92.50